Time;durP1;ratioP1;P1;durP2;ratioP2;P2;SDS_P1;SDS_P2;PMS_P1;PMS_P2;Temp;Humidity;BMP_temperature;BMP_pressure;BME280_temperature;BME280_humidity;BME280_pressure;Samples;Min_cycle;Max_cycle;Signal;HPM_P1;HPM_P2
2023/03/21 00:00:24;;;;;;;3.90;2.67;;;;;;;13.16;57.65;100347.16;5095727;28;20391;-56
2023/03/21 00:02:50;;;;;;;5.13;2.60;;;;;;;13.12;57.79;100341.13;5095517;28;20032;-56
2023/03/21 00:05:16;;;;;;;3.35;2.38;;;;;;;13.27;57.37;100342.44;5095548;28;20485;-56
2023/03/21 00:07:41;;;;;;;3.70;2.50;;;;;;;13.02;58.14;100343.22;5095938;28;20426;-59
2023/03/21 00:10:07;;;;;;;3.67;2.50;;;;;;;13.00;58.14;100344.16;5095659;28;20032;-55
2023/03/21 00:12:36;;;;;;;4.90;2.58;;;;;;;12.92;58.42;100336.47;5086088;28;20044;-56
2023/03/21 00:15:10;;;;;;;3.90;2.58;;;;;;;13.10;57.97;100337.69;5088173;28;20035;-55
2023/03/21 00:17:38;;;;;;;4.15;2.33;;;;;;;12.99;58.33;100335.38;5095456;28;20031;-55
2023/03/21 00:20:05;;;;;;;4.03;3.03;;;;;;;12.84;58.83;100335.88;5094362;28;20089;-55
2023/03/21 00:22:34;;;;;;;4.47;2.70;;;;;;;12.69;59.32;100328.47;5095314;28;20036;-55
2023/03/21 00:24:59;;;;;;;3.88;2.53;;;;;;;12.78;59.01;100330.81;5094189;28;20103;-56
2023/03/21 00:27:26;;;;;;;4.82;2.58;;;;;;;12.96;58.63;100321.44;5095396;28;20487;-55
2023/03/21 00:29:52;;;;;;;4.05;2.35;;;;;;;13.17;57.96;100331.31;5094885;28;20047;-56
2023/03/21 00:32:19;;;;;;;5.90;3.63;;;;;;;12.71;59.52;100324.00;5095227;28;20464;-56
2023/03/21 00:34:45;;;;;;;4.68;3.13;;;;;;;12.75;59.36;100326.47;5076177;28;20035;-56
2023/03/21 00:37:13;;;;;;;5.93;3.40;;;;;;;12.87;59.15;100321.72;5093262;28;20028;-56
2023/03/21 00:39:39;;;;;;;4.15;3.00;;;;;;;12.69;59.79;100317.91;5086399;28;20124;-57
2023/03/21 00:42:04;;;;;;;4.68;3.30;;;;;;;12.79;59.36;100320.19;5083217;28;20475;-55
2023/03/21 00:44:35;;;;;;;5.55;3.40;;;;;;;12.70;59.88;100314.38;5093704;28;20035;-55
2023/03/21 00:47:02;;;;;;;5.03;3.65;;;;;;;12.66;59.99;100325.91;5093919;28;20127;-55
2023/03/21 00:49:37;;;;;;;5.32;3.45;;;;;;;12.71;59.96;100322.22;5094291;28;20036;-56
2023/03/21 00:52:08;;;;;;;5.28;3.20;;;;;;;12.72;59.86;100323.06;5092841;28;20488;-56
2023/03/21 00:54:35;;;;;;;4.88;3.45;;;;;;;12.84;59.60;100320.03;5094002;28;20040;-56
2023/03/21 00:57:01;;;;;;;5.60;3.65;;;;;;;12.67;60.13;100325.00;5093768;28;20048;-55
2023/03/21 00:59:36;;;;;;;4.50;3.03;;;;;;;12.85;59.80;100329.72;5093880;28;20035;-55
2023/03/21 01:02:06;;;;;;;4.95;3.00;;;;;;;12.99;59.32;100327.47;5092183;28;20034;-56
2023/03/21 01:04:35;;;;;;;6.75;3.38;;;;;;;12.85;59.47;100323.53;5093766;28;20081;-57
2023/03/21 01:07:01;;;;;;;4.93;3.25;;;;;;;12.98;59.21;100322.25;5088803;28;20047;-56
2023/03/21 01:09:27;;;;;;;6.38;3.25;;;;;;;13.01;59.19;100330.06;5082219;28;20040;-53
2023/03/21 01:11:52;;;;;;;5.68;3.40;;;;;;;12.93;59.48;100332.09;5091251;28;20032;-56
2023/03/21 01:14:20;;;;;;;5.07;3.30;;;;;;;13.10;58.89;100328.91;5093405;28;20031;-55
2023/03/21 01:16:46;;;;;;;4.63;3.13;;;;;;;13.11;58.99;100326.22;5093219;28;20032;-56
2023/03/21 01:19:15;;;;;;;6.07;3.50;;;;;;;12.88;59.63;100326.94;5092230;28;20047;-55
2023/03/21 01:21:41;;;;;;;4.65;3.15;;;;;;;13.22;58.66;100331.16;5091944;28;20067;-54
2023/03/21 01:24:07;;;;;;;5.45;3.88;;;;;;;12.91;59.71;100336.53;5093388;28;20059;-54
2023/03/21 01:26:32;;;;;;;6.30;4.35;;;;;;;12.87;59.74;100327.88;5093077;28;20039;-55
2023/03/21 01:28:58;;;;;;;6.07;3.58;;;;;;;13.08;59.12;100326.31;5093142;28;20070;-55
2023/03/21 01:31:24;;;;;;;6.13;4.03;;;;;;;13.07;59.32;100325.44;5093225;28;20130;-55
2023/03/21 01:33:49;;;;;;;5.50;3.75;;;;;;;13.00;59.48;100323.06;5093480;28;20062;-54
2023/03/21 01:36:21;;;;;;;6.43;3.65;;;;;;;13.04;59.44;100319.41;5083548;28;20028;-55
2023/03/21 01:38:47;;;;;;;7.03;4.35;;;;;;;13.09;59.30;100317.50;5087003;28;20032;-56
2023/03/21 01:41:39;;;;;;;5.80;3.97;;;;;;;13.14;59.35;100320.84;5093809;28;20046;-54
2023/03/21 01:44:05;;;;;;;7.22;4.20;;;;;;;13.26;58.83;100320.47;5093669;28;20463;-55
2023/03/21 01:46:38;;;;;;;5.90;4.22;;;;;;;13.10;59.25;100319.22;5093424;28;20090;-55
2023/03/21 01:49:33;;;;;;;7.50;4.68;;;;;;;12.67;60.68;100315.31;5093536;28;20067;-55
2023/03/21 01:52:09;;;;;;;6.40;4.30;;;;;;;12.99;59.68;100316.06;5093775;28;20024;-55
2023/03/21 01:54:39;;;;;;;5.70;3.92;;;;;;;12.89;59.55;100312.88;5083462;28;20044;-54
2023/03/21 01:57:10;;;;;;;5.93;4.35;;;;;;;12.88;59.80;100307.63;5084879;28;20483;-55
2023/03/21 01:59:41;;;;;;;6.65;4.50;;;;;;;12.86;59.69;100315.59;5093493;28;20038;-54
2023/03/21 02:02:12;;;;;;;5.85;3.83;;;;;;;13.06;59.16;100314.97;5093198;28;20062;-55
2023/03/21 02:04:39;;;;;;;6.82;4.00;;;;;;;12.79;59.62;100304.38;5083629;28;20575;-55
2023/03/21 02:07:10;;;;;;;5.20;3.83;;;;;;;12.79;59.90;100314.06;5087512;28;20434;-55
2023/03/21 02:09:39;;;;;;;6.30;3.65;;;;;;;12.88;59.71;100319.03;5081530;28;20043;-56
2023/03/21 02:12:15;;;;;;;5.65;3.85;;;;;;;12.65;60.46;100319.78;5084289;28;20039;-55
2023/03/21 02:14:41;;;;;;;6.22;3.85;;;;;;;12.66;60.28;100315.38;5093770;28;20039;-54
2023/03/21 02:17:20;;;;;;;5.50;3.63;;;;;;;12.76;59.89;100322.91;5091724;28;20040;-55
2023/03/21 02:20:13;;;;;;;5.53;3.72;;;;;;;12.61;60.72;100326.06;5092272;28;20122;-54
2023/03/21 02:23:07;;;;;;;;;;;;;;;12.83;60.29;100324.47;5093535;28;20259;-56
2023/03/21 02:26:07;;;;;;;5.20;3.15;;;;;;;12.92;59.78;100319.81;5093324;28;19946;-55
2023/03/21 02:28:42;;;;;;;5.20;3.40;;;;;;;12.93;59.59;100322.41;5092890;28;20077;-54
2023/03/21 02:31:22;;;;;;;5.38;3.58;;;;;;;12.67;60.33;100335.53;5092921;28;20040;-54
2023/03/21 02:34:12;;;;;;;6.22;3.78;;;;;;;12.70;60.18;100331.03;5088393;28;20032;-54
2023/03/21 02:36:55;;;;;;;4.95;3.25;;;;;;;12.99;59.30;100331.88;5086495;28;20036;-55
2023/03/21 02:39:33;;;;;;;3.67;2.83;;;;;;;13.09;58.99;100333.31;5090685;28;20079;-54
2023/03/21 02:42:07;;;;;;;4.72;3.30;;;;;;;13.10;59.03;100340.31;5092360;28;20043;-55
2023/03/21 02:45:17;;;;;;;4.40;3.08;;;;;;;12.99;59.62;100334.53;5092515;28;20391;-55
2023/03/21 02:47:51;;;;;;;4.50;3.35;;;;;;;12.97;59.37;100337.22;5092499;28;20031;-55
2023/03/21 02:50:44;;;;;;;4.50;3.15;;;;;;;12.95;59.57;100336.41;5092273;28;20040;-56
2023/03/21 02:53:13;;;;;;;5.07;3.35;;;;;;;12.86;59.51;100336.69;5091028;28;20063;-56
2023/03/21 02:55:41;;;;;;;4.10;3.00;;;;;;;12.94;59.19;100324.13;5092556;28;20028;-56
2023/03/21 02:58:12;;;;;;;4.30;3.00;;;;;;;12.79;59.60;100328.09;5092167;28;20051;-56
2023/03/21 03:00:39;;;;;;;5.03;3.30;;;;;;;12.90;59.47;100335.69;5086459;28;20077;-55
2023/03/21 03:03:05;;;;;;;4.97;3.15;;;;;;;13.00;59.27;100347.66;5092200;28;20106;-55
2023/03/21 03:05:38;;;;;;;4.93;3.30;;;;;;;13.13;59.06;100344.66;5092527;28;20036;-55
2023/03/21 03:08:12;;;;;;;6.30;3.70;;;;;;;13.12;59.12;100348.16;5095504;28;20034;-56
2023/03/21 03:10:56;;;;;;;4.68;3.50;;;;;;;13.33;58.58;100350.16;5089843;28;20535;-56
2023/03/21 03:13:37;;;;;;;4.43;3.10;;;;;;;13.27;58.49;100342.44;5097800;28;20043;-56
2023/03/21 03:16:21;;;;;;;5.22;3.20;;;;;;;13.32;58.58;100343.13;5095777;28;20130;-56
2023/03/21 03:18:59;;;;;;;5.10;3.22;;;;;;;12.98;59.41;100338.94;5090977;28;20058;-54
2023/03/21 03:21:48;;;;;;;3.78;2.90;;;;;;;12.99;59.33;100347.72;5095823;28;20031;-55
2023/03/21 03:24:21;;;;;;;4.82;3.30;;;;;;;12.84;59.54;100346.41;5076829;28;20028;-55
2023/03/21 03:26:56;;;;;;;4.35;3.22;;;;;;;13.04;59.19;100346.63;5095571;28;20088;-55
2023/03/21 03:29:23;;;;;;;4.43;3.50;;;;;;;12.94;59.20;100350.50;5095317;28;20036;-55
2023/03/21 03:31:52;;;;;;;5.97;3.28;;;;;;;12.88;59.60;100361.22;5095642;28;20032;-55
2023/03/21 03:34:23;;;;;;;4.35;3.15;;;;;;;12.84;59.60;100356.97;5094104;28;20123;-55
2023/03/21 03:36:55;;;;;;;5.68;3.55;;;;;;;12.79;59.81;100358.88;5094515;28;20470;-55
2023/03/21 03:39:24;;;;;;;4.50;3.10;;;;;;;12.83;59.26;100352.59;5095209;28;20120;-56
2023/03/21 03:41:59;;;;;;;4.68;3.00;;;;;;;12.76;59.63;100353.69;5094100;28;20478;-55
2023/03/21 03:44:27;;;;;;;4.30;2.95;;;;;;;12.90;59.27;100354.16;5094707;28;20028;-55
2023/03/21 03:47:01;;;;;;;4.40;3.13;;;;;;;12.94;59.20;100353.13;5095101;28;20028;-56
2023/03/21 03:49:32;;;;;;;4.53;3.17;;;;;;;12.94;58.99;100344.38;5093934;28;20032;-54
2023/03/21 03:52:15;;;;;;;4.88;3.10;;;;;;;12.95;59.01;100346.94;5095247;28;20028;-55
2023/03/21 03:54:44;;;;;;;7.03;2.83;;;;;;;13.00;58.90;100354.69;5089486;28;20380;-55
2023/03/21 03:57:12;;;;;;;3.40;2.47;;;;;;;13.05;58.82;100350.16;5094878;28;20479;-56
2023/03/21 03:59:40;;;;;;;4.50;2.97;;;;;;;13.06;58.73;100358.00;5088977;28;20036;-55
2023/03/21 04:02:06;;;;;;;4.88;3.10;;;;;;;13.07;58.70;100357.09;5094861;28;20028;-55
2023/03/21 04:04:32;;;;;;;3.80;2.83;;;;;;;12.99;58.84;100348.56;5094562;28;20034;-55
2023/03/21 04:06:58;;;;;;;3.20;2.45;;;;;;;12.90;59.05;100358.56;5093376;28;20032;-55
2023/03/21 04:09:27;;;;;;;4.57;3.28;;;;;;;12.65;59.17;100361.09;5094816;28;20084;-54
2023/03/21 04:11:53;;;;;;;3.85;2.67;;;;;;;12.68;59.21;100363.63;5094948;28;20111;-54
2023/03/21 04:14:19;;;;;;;4.60;3.05;;;;;;;12.78;58.95;100355.38;5093262;28;20166;-55
2023/03/21 04:16:45;;;;;;;4.75;2.90;;;;;;;12.82;58.90;100356.16;5093530;28;20395;-54
2023/03/21 04:19:11;;;;;;;4.28;2.88;;;;;;;12.83;58.49;100355.25;5092095;28;20032;-56
2023/03/21 04:21:37;;;;;;;5.05;3.33;;;;;;;12.77;58.60;100373.91;5094725;28;20036;-56
2023/03/21 04:24:02;;;;;;;6.32;3.20;;;;;;;12.72;58.54;100376.66;5094454;28;20036;-54
2023/03/21 04:26:31;;;;;;;4.90;3.63;;;;;;;12.63;58.57;100366.41;5094548;28;20031;-55
2023/03/21 04:29:01;;;;;;;7.07;4.53;;;;;;;12.65;58.23;100375.16;5093272;28;20044;-54
2023/03/21 04:31:30;;;;;;;8.48;3.72;;;;;;;12.69;58.03;100366.22;5093209;28;20032;-57
2023/03/21 04:34:00;;;;;;;6.28;3.90;;;;;;;12.40;57.71;100372.34;5094585;28;20039;-56
2023/03/21 04:36:29;;;;;;;7.03;4.70;;;;;;;12.62;57.88;100371.72;5094821;28;20040;-55
2023/03/21 04:39:00;;;;;;;7.05;4.20;;;;;;;12.53;57.97;100364.97;5094175;28;20043;-55
2023/03/21 04:41:29;;;;;;;7.72;3.78;;;;;;;12.48;57.69;100372.97;5093933;28;20042;-55
2023/03/21 04:43:55;;;;;;;6.25;3.85;;;;;;;12.54;57.85;100387.78;5093564;28;20036;-54
2023/03/21 04:46:21;;;;;;;6.47;4.20;;;;;;;12.38;57.99;100390.00;5094764;28;20043;-56
2023/03/21 04:48:47;;;;;;;6.85;4.45;;;;;;;12.16;58.48;100392.34;5093677;28;20036;-54
2023/03/21 04:51:14;;;;;;;10.70;5.15;;;;;;;11.89;59.15;100394.00;5093278;28;20032;-53
2023/03/21 04:53:42;;;;;;;10.38;5.35;;;;;;;11.60;60.02;100392.94;5094675;28;20042;-55
2023/03/21 04:56:08;;;;;;;10.15;5.35;;;;;;;11.59;59.92;100401.75;5094561;28;20066;-55
2023/03/21 04:58:33;;;;;;;9.40;5.57;;;;;;;11.40;60.34;100394.34;5093271;28;20054;-53
2023/03/21 05:01:01;;;;;;;10.52;5.47;;;;;;;11.35;60.60;100397.09;5094147;28;20494;-55
2023/03/21 05:03:33;;;;;;;8.85;5.15;;;;;;;11.32;60.70;100391.91;5091399;28;20059;-55
2023/03/21 05:05:59;;;;;;;11.15;5.13;;;;;;;11.38;60.45;100406.69;5091099;28;20116;-54
2023/03/21 05:08:24;;;;;;;10.30;5.75;;;;;;;11.41;60.28;100403.97;5091339;28;20491;-52
2023/03/21 05:10:50;;;;;;;9.50;5.57;;;;;;;11.50;59.95;100412.50;5092282;28;20376;-54
2023/03/21 05:13:15;;;;;;;8.40;5.57;;;;;;;11.52;59.96;100415.09;5094417;28;20031;-54
2023/03/21 05:15:41;;;;;;;10.38;5.40;;;;;;;11.51;59.95;100419.50;5071646;28;20123;-55
2023/03/21 05:18:12;;;;;;;9.80;5.78;;;;;;;11.60;59.56;100421.03;5093420;28;20024;-56
2023/03/21 05:20:42;;;;;;;10.90;6.18;;;;;;;11.58;59.75;100420.22;5092944;28;20044;-55
2023/03/21 05:23:09;;;;;;;11.38;6.85;;;;;;;11.77;59.21;100415.34;5093936;28;20043;-54
2023/03/21 05:25:36;;;;;;;13.70;7.07;;;;;;;11.79;58.92;100417.03;5092867;28;20047;-57
2023/03/21 05:28:03;;;;;;;10.25;6.43;;;;;;;11.92;58.49;100420.22;5091870;28;20440;-55
2023/03/21 05:30:29;;;;;;;9.50;5.50;;;;;;;12.12;58.10;100416.19;5090007;28;20036;-55
2023/03/21 05:32:55;;;;;;;11.88;6.25;;;;;;;12.19;57.68;100417.75;5086433;28;20093;-55
2023/03/21 05:35:21;;;;;;;34.08;16.27;;;;;;;12.15;57.68;100422.25;5091822;28;20488;-56
2023/03/21 05:37:46;;;;;;;37.38;18.55;;;;;;;11.93;57.72;100421.97;5091835;28;20601;-56
2023/03/21 05:40:12;;;;;;;28.95;14.50;;;;;;;11.86;58.14;100430.06;5091174;28;20391;-56
2023/03/21 05:42:37;;;;;;;25.55;13.82;;;;;;;11.89;58.09;100430.84;5093196;28;20040;-55
2023/03/21 05:45:03;;;;;;;21.63;11.05;;;;;;;12.07;57.55;100435.63;5088290;28;20036;-55
2023/03/21 05:47:29;;;;;;;27.10;11.85;;;;;;;12.35;57.07;100432.22;5092275;28;20036;-55
2023/03/21 05:49:54;;;;;;;17.33;9.60;;;;;;;12.23;56.67;100435.19;5092277;28;20094;-54
2023/03/21 05:52:20;;;;;;;19.55;10.05;;;;;;;12.45;56.32;100427.59;5091546;28;20039;-55
2023/03/21 05:54:46;;;;;;;20.65;8.95;;;;;;;12.52;55.98;100431.75;5085306;28;20036;-56
2023/03/21 05:57:11;;;;;;;13.32;8.07;;;;;;;12.51;55.62;100436.16;5091386;28;20403;-55
2023/03/21 05:59:36;;;;;;;13.30;7.32;;;;;;;12.58;55.16;100445.63;5092789;28;20067;-53
2023/03/21 06:02:02;;;;;;;13.07;6.78;;;;;;;12.58;54.98;100450.88;5092895;28;20380;-56
2023/03/21 06:04:28;;;;;;;12.60;6.78;;;;;;;12.71;54.40;100447.91;5093434;28;20528;-56
2023/03/21 06:06:53;;;;;;;16.40;8.27;;;;;;;12.78;54.09;100444.19;5093463;28;20041;-56
2023/03/21 06:09:21;;;;;;;14.13;7.20;;;;;;;12.87;53.80;100457.06;5089559;28;20032;-55
2023/03/21 06:11:49;;;;;;;9.43;6.05;;;;;;;12.81;53.71;100454.63;5089432;28;20036;-56
2023/03/21 06:14:15;;;;;;;14.40;8.00;;;;;;;12.89;53.59;100447.38;5090942;28;20457;-57
2023/03/21 06:16:41;;;;;;;13.65;6.88;;;;;;;12.74;53.67;100461.84;5086775;28;20106;-57
2023/03/21 06:19:06;;;;;;;11.23;5.30;;;;;;;12.80;53.09;100464.28;5088317;28;20040;-55
2023/03/21 06:21:31;;;;;;;10.45;5.60;;;;;;;13.03;52.65;100455.69;5088976;28;20043;-57
2023/03/21 06:23:57;;;;;;;10.95;5.88;;;;;;;13.01;52.17;100462.81;5091202;28;20115;-56
2023/03/21 06:26:22;;;;;;;10.32;4.90;;;;;;;13.15;52.00;100461.53;5093363;28;20039;-57
2023/03/21 06:28:49;;;;;;;11.93;6.85;;;;;;;13.15;51.80;100462.38;5093370;28;20032;-56
2023/03/21 06:31:15;;;;;;;10.55;5.63;;;;;;;13.23;51.59;100473.59;5093718;28;20029;-57
2023/03/21 06:33:41;;;;;;;11.35;5.53;;;;;;;13.39;51.27;100473.97;5093182;28;20059;-56
2023/03/21 06:36:07;;;;;;;13.77;6.65;;;;;;;13.65;51.09;100477.56;5093258;28;20043;-57
2023/03/21 06:38:36;;;;;;;13.00;6.15;;;;;;;13.82;50.64;100480.50;5093237;28;20383;-56
2023/03/21 06:41:06;;;;;;;12.25;6.25;;;;;;;13.74;50.60;100480.75;5093367;28;20052;-57
2023/03/21 06:43:32;;;;;;;13.13;5.97;;;;;;;13.70;50.61;100480.91;5097545;28;20081;-56
2023/03/21 06:45:59;;;;;;;10.48;5.50;;;;;;;13.72;50.61;100479.97;5097498;28;20119;-57
2023/03/21 06:48:25;;;;;;;9.07;5.35;;;;;;;13.77;50.42;100491.22;5095953;28;20395;-56
2023/03/21 06:50:51;;;;;;;9.85;5.28;;;;;;;13.89;50.40;100489.09;5095889;28;20032;-56
2023/03/21 06:53:19;;;;;;;8.85;5.38;;;;;;;13.80;50.37;100493.78;5097363;28;20107;-55
2023/03/21 06:55:49;;;;;;;7.35;4.97;;;;;;;13.67;50.08;100494.22;5097019;28;20031;-56
2023/03/21 06:58:15;;;;;;;8.52;5.00;;;;;;;13.90;50.35;100502.25;5097477;28;20117;-56
2023/03/21 07:00:41;;;;;;;10.52;4.80;;;;;;;14.09;50.05;100502.50;5096088;28;20079;-59
2023/03/21 07:03:06;;;;;;;9.75;5.32;;;;;;;13.77;50.52;100512.34;5097019;28;20036;-57
2023/03/21 07:05:34;;;;;;;6.72;4.60;;;;;;;13.91;49.51;100514.53;5095626;28;20028;-56
2023/03/21 07:08:00;;;;;;;9.65;5.10;;;;;;;13.87;49.95;100506.75;5095554;28;20503;-56
2023/03/21 07:10:25;;;;;;;9.35;5.32;;;;;;;13.73;50.48;100512.50;5095581;28;20137;-56
2023/03/21 07:12:51;;;;;;;8.05;4.93;;;;;;;13.85;50.27;100504.19;5096917;28;20411;-57
2023/03/21 07:15:16;;;;;;;7.47;4.10;;;;;;;13.41;50.71;100517.03;5097465;28;20388;-55
2023/03/21 07:17:41;;;;;;;10.15;4.35;;;;;;;13.51;50.55;100507.03;5096711;28;20036;-56
2023/03/21 07:20:08;;;;;;;7.57;4.75;;;;;;;14.11;49.46;100500.63;5078406;28;20441;-56
2023/03/21 07:22:34;;;;;;;9.38;5.22;;;;;;;14.31;49.20;100502.59;5096431;28;20032;-57
2023/03/21 07:25:00;;;;;;;7.97;4.20;;;;;;;14.41;48.66;100504.00;5095635;28;20032;-54
2023/03/21 07:27:25;;;;;;;9.73;4.97;;;;;;;14.51;48.84;100501.91;5095327;28;20063;-55
2023/03/21 07:29:50;;;;;;;10.02;5.22;;;;;;;14.18;49.10;100507.44;5095293;28;20032;-58
2023/03/21 07:32:16;;;;;;;12.23;5.63;;;;;;;14.28;49.03;100505.34;5096346;28;20034;-58
2023/03/21 07:34:41;;;;;;;12.60;5.43;;;;;;;14.51;48.85;100502.78;5095390;28;20036;-56
2023/03/21 07:37:07;;;;;;;10.40;4.70;;;;;;;14.29;48.23;100504.44;5094849;28;20043;-56
2023/03/21 07:39:33;;;;;;;7.38;4.20;;;;;;;14.37;48.41;100506.81;5094782;28;20047;-56
2023/03/21 07:41:59;;;;;;;5.60;3.15;;;;;;;14.50;47.78;100511.63;5095239;28;20040;-57
2023/03/21 07:44:25;;;;;;;7.18;3.90;;;;;;;14.93;47.42;100510.06;5096348;28;20032;-56
2023/03/21 07:46:50;;;;;;;4.93;2.95;;;;;;;14.89;47.22;100511.09;5078042;28;20028;-56
2023/03/21 07:49:16;;;;;;;10.00;4.35;;;;;;;14.83;47.42;100510.47;5094758;28;20042;-58
2023/03/21 07:51:41;;;;;;;10.20;4.05;;;;;;;14.74;47.33;100514.31;5095870;28;20049;-58
2023/03/21 07:54:07;;;;;;;6.57;3.22;;;;;;;14.85;47.08;100506.84;5094530;28;20028;-58
2023/03/21 07:56:32;;;;;;;6.78;3.10;;;;;;;15.01;46.50;100520.38;5094933;28;20032;-57
2023/03/21 07:58:58;;;;;;;8.15;3.20;;;;;;;14.74;46.90;100528.41;5095809;28;20031;-57
2023/03/21 08:01:27;;;;;;;10.88;4.30;;;;;;;14.97;46.54;100529.34;5077894;28;20067;-57
2023/03/21 08:03:52;;;;;;;6.57;3.92;;;;;;;15.12;46.47;100522.59;5095529;28;20039;-57
2023/03/21 08:06:21;;;;;;;7.00;3.30;;;;;;;15.22;45.88;100535.41;5095617;28;20422;-57
2023/03/21 08:08:47;;;;;;;6.07;3.85;;;;;;;15.27;46.18;100525.50;5095528;28;20032;-56
2023/03/21 08:11:13;;;;;;;9.70;4.25;;;;;;;15.01;46.66;100530.97;5095939;28;20104;-56
2023/03/21 08:13:39;;;;;;;7.18;3.50;;;;;;;14.50;47.17;100530.16;5095615;28;20035;-57
2023/03/21 08:16:05;;;;;;;7.93;3.15;;;;;;;14.66;46.82;100529.59;5095462;28;20039;-56
2023/03/21 08:18:31;;;;;;;9.60;3.50;;;;;;;15.13;45.67;100527.84;5095575;28;20032;-57
2023/03/21 08:20:56;;;;;;;6.93;3.67;;;;;;;15.76;44.78;100528.06;5077189;28;20502;-56
2023/03/21 08:23:24;;;;;;;8.27;4.10;;;;;;;15.72;44.80;100537.06;5095381;28;20043;-56
2023/03/21 08:25:51;;;;;;;6.85;3.17;;;;;;;15.52;44.93;100538.69;5094280;28;20031;-56
2023/03/21 08:28:17;;;;;;;9.18;4.43;;;;;;;15.01;45.29;100542.41;5095497;28;20028;-57
2023/03/21 08:30:43;;;;;;;9.80;5.10;;;;;;;15.17;45.32;100553.28;5094280;28;20057;-57
2023/03/21 08:33:09;;;;;;;6.57;4.03;;;;;;;15.18;45.25;100538.25;5093904;28;20058;-57
2023/03/21 08:35:36;;;;;;;10.40;5.72;;;;;;;15.06;45.51;100549.31;5095261;28;20032;-56
2023/03/21 08:38:02;;;;;;;11.75;5.32;;;;;;;15.03;45.56;100551.13;5095140;28;20036;-56
2023/03/21 08:40:28;;;;;;;9.73;4.93;;;;;;;14.94;45.74;100551.47;5094869;28;20074;-57
2023/03/21 08:42:54;;;;;;;7.95;3.40;;;;;;;14.99;44.73;100546.88;5094925;28;20491;-57
2023/03/21 08:45:19;;;;;;;8.07;4.20;;;;;;;15.08;44.81;100560.69;5094962;28;20039;-56
2023/03/21 08:47:45;;;;;;;9.30;4.05;;;;;;;14.92;44.97;100560.38;5093964;28;20046;-55
2023/03/21 08:50:18;;;;;;;15.43;6.35;;;;;;;15.02;43.96;100560.00;5094994;28;20122;-56
2023/03/21 08:52:44;;;;;;;;;;;;;;;15.24;43.51;100569.75;5095588;28;20024;-56
2023/03/21 08:55:11;;;;;;;10.20;3.15;;;;;;;15.43;44.00;100554.91;5076831;28;20386;-57
2023/03/21 08:57:37;;;;;;;10.88;4.68;;;;;;;15.67;43.50;100578.72;5094814;28;20047;-57
2023/03/21 09:00:13;;;;;;;12.63;6.82;;;;;;;15.49;43.33;100573.22;5094776;28;20031;-57
2023/03/21 09:02:47;;;;;;;8.75;4.53;;;;;;;15.51;43.02;100576.66;5093354;28;20561;-57
2023/03/21 09:05:13;;;;;;;7.45;3.90;;;;;;;15.39;43.92;100579.78;5094264;28;20473;-57
2023/03/21 09:07:40;;;;;;;5.30;2.92;;;;;;;15.37;44.16;100571.03;5093504;28;20038;-57
2023/03/21 09:10:07;;;;;;;5.22;3.10;;;;;;;15.40;43.81;100570.94;5093356;28;20028;-57
2023/03/21 09:12:33;;;;;;;4.68;2.47;;;;;;;15.29;44.15;100573.13;5094785;28;20035;-57
2023/03/21 09:15:01;;;;;;;5.72;2.60;;;;;;;14.50;44.12;100598.88;5093329;28;20043;-57
2023/03/21 09:17:28;;;;;;;6.78;2.58;;;;;;;14.58;44.34;100595.97;5094813;28;20032;-58
2023/03/21 09:19:53;;;;;;;4.35;2.40;;;;;;;14.68;44.24;100591.22;5094430;28;20068;-57
2023/03/21 09:22:20;;;;;;;7.18;2.78;;;;;;;14.82;44.12;100596.03;5093288;28;20074;-56
2023/03/21 09:24:46;;;;;;;7.03;2.55;;;;;;;15.23;43.28;100586.56;5093090;28;20024;-57
2023/03/21 09:27:21;;;;;;;6.28;2.53;;;;;;;15.64;41.24;100585.00;5094199;28;20119;-57
2023/03/21 09:29:50;;;;;;;3.53;2.40;;;;;;;16.23;40.39;100576.41;5092821;28;20020;-57
2023/03/21 09:32:17;;;;;;;5.28;2.15;;;;;;;16.72;40.37;100568.19;5093182;28;20032;-58
2023/03/21 09:34:43;;;;;;;5.68;2.67;;;;;;;17.18;39.84;100568.78;5092963;28;20071;-57
2023/03/21 09:37:12;;;;;;;3.80;2.53;;;;;;;17.37;39.82;100566.13;5092861;28;20123;-57
2023/03/21 09:39:39;;;;;;;4.03;2.00;;;;;;;17.42;39.32;100572.94;5093891;28;20059;-56
2023/03/21 09:42:25;;;;;;;3.75;2.38;;;;;;;16.89;39.73;100570.97;5093767;28;20395;-57
2023/03/21 09:45:11;;;;;;;5.68;2.28;;;;;;;16.37;38.75;100562.59;5093903;28;20036;-57
2023/03/21 09:47:48;;;;;;;4.60;2.45;;;;;;;16.23;40.06;100557.88;5093665;28;20395;-57
2023/03/21 09:50:21;;;;;;;7.13;3.90;;;;;;;16.16;39.51;100560.88;5093690;28;20073;-58
2023/03/21 09:52:58;;;;;;;8.13;3.42;;;;;;;16.29;39.66;100555.91;5094039;28;20032;-61
2023/03/21 09:55:30;;;;;;;5.15;2.30;;;;;;;16.43;39.75;100564.97;5093542;28;20512;-58
2023/03/21 09:58:20;;;;;;;3.72;1.80;;;;;;;16.69;39.13;100563.84;5093686;28;20069;-58
2023/03/21 10:00:55;;;;;;;4.22;2.28;;;;;;;16.73;39.71;100568.13;5093715;28;20032;-59
2023/03/21 10:03:29;;;;;;;7.03;2.92;;;;;;;16.93;39.92;100564.59;5093984;28;20487;-57
2023/03/21 10:06:00;;;;;;;5.32;2.63;;;;;;;16.73;40.01;100561.97;5093855;28;20483;-57
2023/03/21 10:08:35;;;;;;;8.02;2.40;;;;;;;16.71;40.91;100567.28;5093688;28;20031;-58
2023/03/21 10:11:26;;;;;;;4.53;2.40;;;;;;;16.84;39.64;100569.47;5092363;28;20036;-57
2023/03/21 10:14:06;;;;;;;3.83;2.28;;;;;;;16.67;40.01;100572.78;5093740;28;20032;-58
2023/03/21 10:16:36;;;;;;;5.63;2.90;;;;;;;16.93;40.34;100574.34;5093079;28;20042;-57
2023/03/21 10:19:11;;;;;;;5.20;2.60;;;;;;;17.19;38.40;100571.34;5092294;28;20036;-57
2023/03/21 10:21:42;;;;;;;4.35;2.05;;;;;;;17.91;38.70;100570.66;5092149;28;20475;-58
2023/03/21 10:24:12;;;;;;;4.13;2.38;;;;;;;17.51;38.77;100576.97;5093692;28;20111;-58
2023/03/21 10:26:39;;;;;;;6.10;1.92;;;;;;;17.47;38.74;100581.59;5093696;28;20036;-58
2023/03/21 10:29:05;;;;;;;4.28;2.00;;;;;;;17.42;39.07;100577.41;5093472;28;20028;-56
2023/03/21 10:31:32;;;;;;;4.88;2.38;;;;;;;17.51;38.82;100578.75;5092195;28;20032;-58
2023/03/21 10:34:03;;;;;;;5.85;2.55;;;;;;;16.90;38.73;100585.94;5092087;28;20399;-58
2023/03/21 10:36:32;;;;;;;6.38;2.70;;;;;;;16.39;39.69;100586.38;5093862;28;20060;-58
2023/03/21 10:39:12;;;;;;;5.05;2.80;;;;;;;16.38;39.98;100572.28;5092504;28;20103;-57
2023/03/21 10:41:39;;;;;;;5.72;2.60;;;;;;;16.77;40.13;100576.81;5093321;28;20063;-58
2023/03/21 10:44:07;;;;;;;5.88;2.90;;;;;;;17.18;38.46;100579.41;5093154;28;20024;-57
2023/03/21 10:46:34;;;;;;;4.47;2.33;;;;;;;17.45;38.38;100583.44;5091899;28;20035;-57
2023/03/21 10:49:00;;;;;;;5.78;2.13;;;;;;;17.71;38.03;100570.69;5093124;28;20108;-57
2023/03/21 10:51:30;;;;;;;4.53;2.10;;;;;;;18.13;37.27;100578.41;5093474;28;20114;-57
2023/03/21 10:54:10;;;;;;;3.83;2.30;;;;;;;18.31;35.27;100579.31;5092203;28;20047;-57
2023/03/21 10:56:59;;;;;;;3.45;2.30;;;;;;;18.11;36.68;100585.63;5093209;28;20479;-57
2023/03/21 10:59:32;;;;;;;6.18;2.58;;;;;;;18.61;36.67;100573.34;5092151;28;20027;-57
2023/03/21 11:01:57;;;;;;;3.95;2.00;;;;;;;18.99;36.42;100565.16;5092118;28;20063;-57
2023/03/21 11:04:26;;;;;;;4.65;2.03;;;;;;;18.93;36.58;100583.19;5093135;28;20055;-57
2023/03/21 11:06:53;;;;;;;5.45;2.30;;;;;;;18.94;36.61;100571.56;5093158;28;20036;-57
2023/03/21 11:09:23;;;;;;;3.63;1.90;;;;;;;18.98;36.25;100566.09;5091837;28;20024;-58
2023/03/21 11:12:10;;;;;;;6.25;2.40;;;;;;;17.71;37.08;100560.94;5092890;28;20039;-58
2023/03/21 11:14:41;;;;;;;5.18;2.03;;;;;;;17.35;38.40;100560.88;5093109;28;20078;-58
2023/03/21 11:17:28;;;;;;;9.43;2.45;;;;;;;17.36;38.38;100561.75;5091767;28;20555;-58
2023/03/21 11:19:58;;;;;;;3.67;2.10;;;;;;;17.44;38.54;100564.91;5092776;28;20034;-58
2023/03/21 11:22:29;;;;;;;4.18;2.45;;;;;;;17.04;38.89;100555.28;5093316;28;20039;-57
2023/03/21 11:25:01;;;;;;;5.97;2.55;;;;;;;16.61;39.49;100554.50;5093126;28;20070;-58
2023/03/21 11:27:28;;;;;;;7.10;2.72;;;;;;;16.73;40.00;100561.97;5092121;28;20024;-58
2023/03/21 11:29:56;;;;;;;8.77;2.78;;;;;;;16.77;40.07;100555.59;5095155;28;20039;-57
2023/03/21 11:32:36;;;;;;;5.63;2.35;;;;;;;16.78;38.42;100556.44;5096318;28;20055;-58
2023/03/21 11:35:14;;;;;;;5.55;2.92;;;;;;;17.05;38.59;100557.00;5096653;28;20522;-57